Rechercher aéroport 
image banner adimage banner adimage banner ad
image banner ad

9D4 - Deck

Situé à Myerstown, United States

ICAO - 9D4, IATA -

Données fournies par Airmate  

Information générale

Coordonnées: N40°21'8" W76°19'47"
Élévation : 523 feet MSL.
Variation magnétique : -09° East
Voir autres Aéroports à Pennsylvania

Données opérationnelles

Special qualification required
Heure actuelle UTC:
Heure actuelle locale:
METAR: KMUI 132056Z AUTO 03003KT 10SM SCT006 BKN015 BKN021 OVC028 22/21 A2987 RMK AO2 DZE17 BKN015 V OVC SLPNO P0000 60000 T02160212 58012
Voir NOTAMs / SUP AIP / TFR affectant cet aéroport [VIEW]
Fréquences de communication: [VIEW]

Pistes:

Identifiant RWYQFULongueur (ft)Largeur (ft)SurfaceLDA (ft)
01354°378650ASPH
19174°378650ASPH

Coordonnées de l'aéroport

Adresse: Myerstown United States

Autres services d'aviation

Écoles de pilotage

Deck Airport

Deck Airport
lrdeck@gmail.com+1(717)866-6529

Vue satellite de 9D4